Terminal Aerodrome Forecast
Issued by NWS Springfield, MO

Home | Current Version | Previous Version | Text Only | Print | Product List | Glossary On
Versions: 1 2 3 4 5 6 7 8 9 10 11 12 13 14
000
FTUS43 KSGF 281120
TAFSGF
TAF
KSGF 281120Z 2812/2912 18010KT P6SM BKN250
     FM281500 18012KT P6SM SCT015 BKN025
     FM281700 20012G18KT P6SM BKN025
     FM290000 22008KT P6SM SKC=

USA.gov is the U.S. government's official web portal to all federal, state and local government web resources and services.